createdAt,value
2022-11-05T00:02:35.487Z,2.25
2022-11-05T00:05:23.239Z,2.35
2022-11-05T00:08:11.976Z,1.70
2022-11-05T00:10:40.730Z,1.80
2022-11-05T00:13:28.063Z,1.63
2022-11-05T00:16:10.733Z,2.13
2022-11-05T00:18:39.671Z,1.80
2022-11-05T00:21:30.207Z,1.88
2022-11-05T00:24:20.384Z,1.88
2022-11-05T00:26:51.800Z,2.03
2022-11-05T00:29:20.397Z,2.17
2022-11-05T00:31:48.959Z,2.67
2022-11-05T00:34:17.571Z,2.40
2022-11-05T00:36:47.646Z,2.22
2022-11-05T00:39:16.247Z,2.63
2022-11-05T00:42:04.870Z,2.63
2022-11-05T00:44:51.027Z,2.38
2022-11-05T00:47:37.070Z,2.35
2022-11-05T00:50:05.925Z,2.47
2022-11-05T00:52:53.735Z,2.45
2022-11-05T00:55:22.287Z,2.55
2022-11-05T00:57:50.848Z,2.33
2022-11-05T01:00:19.824Z,2.72
2022-11-05T01:02:48.812Z,2.15
2022-11-05T01:05:17.608Z,2.30
2022-11-05T01:07:47.925Z,2.80
2022-11-05T01:10:16.616Z,2.60
2022-11-05T01:12:45.187Z,2.75
2022-11-05T01:15:13.733Z,2.88
2022-11-05T01:17:42.281Z,3.50
2022-11-05T01:20:11.494Z,3.33
2022-11-05T01:22:40.059Z,4.10
2022-11-05T01:25:10.968Z,4.07
2022-11-05T01:27:40.025Z,3.88
2022-11-05T01:30:09.996Z,4.00
2022-11-05T01:32:39.055Z,3.83
2022-11-05T01:35:08.835Z,3.33
2022-11-05T01:37:37.618Z,4.00
2022-11-05T01:40:06.704Z,3.25
2022-11-05T01:42:36.886Z,3.22
2022-11-05T01:45:12.431Z,3.00
2022-11-05T01:47:44.814Z,2.97
2022-11-05T01:50:19.608Z,3.00
2022-11-05T01:52:48.920Z,3.00
2022-11-05T01:55:20.828Z,3.13
2022-11-05T01:57:51.271Z,3.38
2022-11-05T02:00:19.936Z,2.85
2022-11-05T02:02:49.160Z,2.90
2022-11-05T02:05:17.980Z,2.80
2022-11-05T02:07:47.321Z,3.35
2022-11-05T02:10:18.034Z,3.67
2022-11-05T02:12:47.893Z,3.38
2022-11-05T02:15:18.866Z,2.95
2022-11-05T02:17:53.421Z,2.70
2022-11-05T02:20:30.459Z,3.15
2022-11-05T02:23:29.240Z,2.83
2022-11-05T02:26:05.852Z,3.05
2022-11-05T02:28:46.203Z,2.95
2022-11-05T02:31:19.872Z,3.40
2022-11-05T02:33:57.117Z,3.05
2022-11-05T02:36:33.362Z,2.92
2022-11-05T02:39:08.987Z,2.70
2022-11-05T02:41:41.892Z,2.90
2022-11-05T02:44:15.044Z,3.28
2022-11-05T02:46:48.327Z,3.17
2022-11-05T02:49:22.104Z,2.80
2022-11-05T02:51:54.543Z,2.67
2022-11-05T02:54:26.601Z,3.20
2022-11-05T02:56:56.269Z,3.45
2022-11-05T02:59:24.891Z,2.80
2022-11-05T03:01:55.363Z,3.30
2022-11-05T03:04:25.603Z,3.50
2022-11-05T03:07:03.203Z,3.47
2022-11-05T03:09:54.866Z,3.40
2022-11-05T03:12:28.665Z,2.97
2022-11-05T03:14:59.883Z,3.20
2022-11-05T03:17:33.359Z,3.53
2022-11-05T03:20:05.107Z,3.50
2022-11-05T03:22:38.883Z,3.22
2022-11-05T03:25:10.455Z,2.88
2022-11-05T03:27:40.715Z,3.03
2022-11-05T03:30:11.383Z,3.00
2022-11-05T03:32:43.986Z,3.00
2022-11-05T03:35:14.828Z,3.17
2022-11-05T03:37:44.796Z,2.83
2022-11-05T03:40:14.098Z,3.13
2022-11-05T03:42:44.831Z,3.05
2022-11-05T03:45:16.830Z,3.03
2022-11-05T03:47:48.740Z,3.17
2022-11-05T03:50:21.227Z,2.92
2022-11-05T03:52:53.302Z,2.95
2022-11-05T03:55:24.907Z,3.22
2022-11-05T03:57:55.639Z,3.17
2022-11-05T04:00:24.679Z,3.60
2022-11-05T04:02:54.783Z,3.10
2022-11-05T04:05:23.610Z,3.00
2022-11-05T04:08:14.070Z,3.10
2022-11-05T04:11:00.523Z,3.10
2022-11-05T04:13:29.148Z,3.20
2022-11-05T04:16:15.913Z,3.15
2022-11-05T04:18:45.894Z,3.42
2022-11-05T04:21:32.487Z,3.20
2022-11-05T04:24:10.380Z,3.97
2022-11-05T04:26:40.039Z,3.35
2022-11-05T04:29:26.713Z,3.25
2022-11-05T04:31:55.654Z,3.40
2022-11-05T04:34:25.639Z,3.08
2022-11-05T04:36:54.819Z,3.33
2022-11-05T04:39:23.456Z,2.95
2022-11-05T04:41:52.073Z,3.53
2022-11-05T04:44:20.678Z,2.97
2022-11-05T04:46:49.228Z,2.80
2022-11-05T04:49:17.887Z,3.00
2022-11-05T04:51:47.884Z,2.38
2022-11-05T04:54:16.483Z,2.92
2022-11-05T04:56:45.050Z,2.10
2022-11-05T04:59:13.732Z,2.67
2022-11-05T05:01:42.369Z,2.55
2022-11-05T05:04:11.079Z,2.70
2022-11-05T05:06:39.707Z,2.55
2022-11-05T05:09:09.726Z,2.78
2022-11-05T05:11:38.390Z,3.33
2022-11-05T05:14:06.955Z,2.70
2022-11-05T05:16:35.503Z,2.60
2022-11-05T05:19:04.241Z,3.08
2022-11-05T05:21:41.651Z,3.45
2022-11-05T05:24:13.019Z,2.95
2022-11-05T05:26:42.917Z,2.80
2022-11-05T05:29:12.532Z,2.85
2022-11-05T05:31:41.536Z,2.80
2022-11-05T05:34:12.555Z,2.78
2022-11-05T05:36:41.209Z,2.42
2022-11-05T05:39:10.980Z,2.80
2022-11-05T05:41:41.083Z,2.97
2022-11-05T05:44:09.669Z,2.72
2022-11-05T05:46:38.338Z,3.20
2022-11-05T05:49:12.156Z,2.70
2022-11-05T05:51:41.300Z,2.40
2022-11-05T05:54:10.106Z,3.08
2022-11-05T05:56:38.635Z,2.83
2022-11-05T05:59:08.916Z,2.97
2022-11-05T06:01:37.809Z,3.60
2022-11-05T06:04:06.560Z,3.47
2022-11-05T06:06:35.107Z,2.67
2022-11-05T06:09:03.851Z,3.15
2022-11-05T06:11:32.595Z,3.30
2022-11-05T06:14:02.255Z,3.80
2022-11-05T06:16:35.945Z,3.20
2022-11-05T06:19:04.761Z,3.50
2022-11-05T06:21:33.416Z,3.53
2022-11-05T06:24:03.035Z,3.33
2022-11-05T06:26:31.690Z,3.40
2022-11-05T06:29:00.323Z,3.45
2022-11-05T06:31:28.978Z,3.83
2022-11-05T06:33:59.004Z,3.78
2022-11-05T06:36:27.591Z,4.20
2022-11-05T06:38:56.231Z,3.60
2022-11-05T06:41:24.851Z,3.28
2022-11-05T06:43:53.401Z,2.90
2022-11-05T06:46:21.956Z,2.88
2022-11-05T06:48:51.028Z,2.83
2022-11-05T06:51:21.136Z,2.65
2022-11-05T06:53:49.890Z,3.05
2022-11-05T06:56:18.731Z,2.95
2022-11-05T06:58:47.387Z,2.90
2022-11-05T07:01:16.090Z,3.00
2022-11-05T07:03:49.020Z,3.05
2022-11-05T07:06:18.330Z,2.42
2022-11-05T07:08:48.611Z,2.65
2022-11-05T07:11:17.602Z,2.67
2022-11-05T07:13:46.544Z,2.65
2022-11-05T07:16:15.339Z,2.53
2022-11-05T07:18:44.282Z,2.53
2022-11-05T07:21:13.272Z,2.25
2022-11-05T07:23:42.318Z,2.28
2022-11-05T07:26:12.692Z,1.95
2022-11-05T07:28:41.666Z,2.10
2022-11-05T07:31:10.558Z,2.30
2022-11-05T07:33:39.418Z,2.30
2022-11-05T07:36:08.517Z,2.40
2022-11-05T07:38:37.362Z,2.22
2022-11-05T07:41:06.283Z,2.45
2022-11-05T07:43:37.488Z,3.70
2022-11-05T07:46:09.865Z,2.80
2022-11-05T07:48:42.499Z,3.08
2022-11-05T07:51:11.172Z,2.55
2022-11-05T07:53:44.090Z,2.97
2022-11-05T07:56:14.247Z,2.22
2022-11-05T07:58:44.462Z,2.28
2022-11-05T08:01:13.530Z,2.10
2022-11-05T08:03:42.685Z,2.60
2022-11-05T08:06:11.633Z,2.90
2022-11-05T08:08:40.477Z,2.60
2022-11-05T08:11:10.061Z,2.40
2022-11-05T08:13:39.263Z,2.40
2022-11-05T08:16:10.987Z,2.17
2022-11-05T08:18:40.248Z,3.05
2022-11-05T08:21:09.668Z,2.67
2022-11-05T08:23:39.532Z,2.50
2022-11-05T08:26:08.334Z,2.53
2022-11-05T08:28:37.195Z,2.70
2022-11-05T08:31:06.026Z,2.50
2022-11-05T08:33:36.182Z,1.90
2022-11-05T08:36:05.623Z,2.00
2022-11-05T08:38:34.546Z,2.38
2022-11-05T08:41:03.546Z,2.20
2022-11-05T08:43:32.468Z,2.22
2022-11-05T08:46:02.048Z,2.40
2022-11-05T08:48:30.762Z,2.20
2022-11-05T08:51:01.722Z,2.25
2022-11-05T08:53:30.398Z,2.03
2022-11-05T08:56:02.003Z,2.45
2022-11-05T08:58:31.143Z,1.95
2022-11-05T09:01:04.689Z,2.60
2022-11-05T09:03:34.071Z,2.13
2022-11-05T09:06:04.040Z,2.40
2022-11-05T09:08:32.624Z,2.88
2022-11-05T09:11:01.344Z,2.67
2022-11-05T09:13:30.050Z,2.75
2022-11-05T09:16:00.239Z,2.60
2022-11-05T09:18:28.887Z,2.25
2022-11-05T09:20:57.524Z,2.95
2022-11-05T09:23:27.523Z,2.45
2022-11-05T09:25:56.116Z,3.08
2022-11-05T09:28:25.567Z,2.83
2022-11-05T09:30:54.673Z,3.13
2022-11-05T09:33:24.392Z,3.38
2022-11-05T09:35:53.830Z,3.85
2022-11-05T09:38:22.490Z,3.05
2022-11-05T09:40:56.755Z,4.03
2022-11-05T09:43:31.433Z,3.90
2022-11-05T09:46:01.660Z,4.07
2022-11-05T09:48:32.146Z,3.80
2022-11-05T09:51:01.161Z,3.40
2022-11-05T09:53:30.068Z,3.83
2022-11-05T09:56:00.803Z,3.40
2022-11-05T09:58:36.291Z,3.95
2022-11-05T10:01:06.110Z,4.22
2022-11-05T10:03:36.286Z,3.90
2022-11-05T10:06:09.271Z,4.25
2022-11-05T10:08:40.619Z,4.30
2022-11-05T10:11:12.833Z,4.25
2022-11-05T10:13:43.943Z,4.15
2022-11-05T10:16:16.493Z,4.00
2022-11-05T10:18:46.687Z,4.30
2022-11-05T10:21:21.542Z,4.10
2022-11-05T10:24:01.198Z,3.97
2022-11-05T10:26:31.564Z,3.78
2022-11-05T10:29:00.121Z,3.97
2022-11-05T10:31:35.172Z,4.00
2022-11-05T10:34:06.148Z,3.55
2022-11-05T10:36:36.118Z,3.60
2022-11-05T10:39:08.804Z,3.75
2022-11-05T10:41:46.567Z,3.67
2022-11-05T10:44:22.698Z,3.28
2022-11-05T10:46:55.376Z,3.85
2022-11-05T10:49:29.651Z,3.55
2022-11-05T10:51:59.250Z,3.45
2022-11-05T10:54:32.124Z,3.05
2022-11-05T10:57:02.148Z,3.00
2022-11-05T10:59:31.702Z,2.88
2022-11-05T11:02:02.469Z,3.35
2022-11-05T11:04:37.510Z,3.25
2022-11-05T11:07:06.745Z,3.15
2022-11-05T11:09:37.869Z,2.60
2022-11-05T11:12:09.511Z,3.53
2022-11-05T11:14:38.167Z,3.22
2022-11-05T11:17:21.685Z,2.72
2022-11-05T11:19:51.367Z,2.75
2022-11-05T11:22:21.787Z,2.80
2022-11-05T11:24:51.960Z,3.47
2022-11-05T11:27:24.063Z,4.28
2022-11-05T11:29:56.968Z,3.88
2022-11-05T11:32:28.223Z,3.15
2022-11-05T11:34:58.286Z,3.25
2022-11-05T11:37:28.323Z,3.30
2022-11-05T11:39:58.187Z,3.30
2022-11-05T11:42:31.473Z,3.15
2022-11-05T11:45:02.821Z,2.83
2022-11-05T11:47:31.620Z,2.78
2022-11-05T11:50:00.907Z,2.65
2022-11-05T11:52:30.890Z,2.80
2022-11-05T11:55:14.909Z,3.08
2022-11-05T11:57:46.726Z,3.33
2022-11-05T12:00:16.223Z,2.90
2022-11-05T12:03:01.630Z,2.80
2022-11-05T12:05:39.410Z,2.20
2022-11-05T12:08:13.858Z,2.53
2022-11-05T12:10:46.888Z,2.60
2022-11-05T12:13:30.494Z,2.70
2022-11-05T12:16:03.636Z,1.65
2022-11-05T12:18:37.258Z,1.75
2022-11-05T12:21:09.615Z,2.03
2022-11-05T12:23:48.296Z,2.10
2022-11-05T12:26:22.104Z,1.95
2022-11-05T12:29:17.826Z,2.63
2022-11-05T12:31:54.475Z,2.95
2022-11-05T12:34:31.035Z,2.53
2022-11-05T12:37:05.722Z,2.22
2022-11-05T12:39:43.905Z,1.50
2022-11-05T12:42:20.932Z,2.00
2022-11-05T12:44:53.995Z,1.77
2022-11-05T12:47:32.627Z,2.28
2022-11-05T12:50:05.007Z,2.58
2022-11-05T12:52:39.944Z,2.53
2022-11-05T12:55:11.315Z,2.33
2022-11-05T12:57:42.232Z,2.30
2022-11-05T13:00:17.196Z,2.10
2022-11-05T13:02:51.452Z,1.92
2022-11-05T13:05:23.727Z,1.52
2022-11-05T13:07:55.080Z,1.63
2022-11-05T13:10:27.643Z,1.73
2022-11-05T13:13:00.106Z,2.55
2022-11-05T13:15:31.299Z,2.47
2022-11-05T13:18:03.703Z,1.90
2022-11-05T13:20:34.904Z,1.40
2022-11-05T13:23:07.176Z,1.45
2022-11-05T13:25:39.485Z,1.63
2022-11-05T13:28:12.521Z,1.70
2022-11-05T13:30:44.355Z,1.80
2022-11-05T13:33:15.655Z,1.65
2022-11-05T13:35:46.698Z,1.63
2022-11-05T13:38:37.351Z,1.50
2022-11-05T13:41:17.072Z,1.60
2022-11-05T13:43:56.574Z,1.58
2022-11-05T13:46:41.218Z,1.40
2022-11-05T13:49:28.198Z,1.60
2022-11-05T13:51:58.931Z,2.10
2022-11-05T13:54:46.131Z,2.00
2022-11-05T13:57:29.663Z,2.00
2022-11-05T14:00:03.468Z,2.35
2022-11-05T14:02:37.405Z,1.92
2022-11-05T14:05:07.635Z,2.60
2022-11-05T14:07:38.756Z,2.53
2022-11-05T14:10:16.022Z,2.92
2022-11-05T14:12:48.556Z,2.28
2022-11-05T14:15:19.741Z,1.90
2022-11-05T14:17:59.083Z,2.30
2022-11-05T14:20:39.529Z,2.30
2022-11-05T14:23:26.455Z,2.65
2022-11-05T14:25:57.606Z,3.17
2022-11-05T14:28:43.481Z,3.05
2022-11-05T14:31:47.339Z,2.90
2022-11-05T14:34:25.444Z,2.28
2022-11-05T14:37:12.847Z,2.15
2022-11-05T14:39:42.018Z,1.90
2022-11-05T14:42:18.248Z,2.00
2022-11-05T14:45:09.972Z,2.28
2022-11-05T14:47:40.547Z,2.30
2022-11-05T14:50:11.602Z,1.95
2022-11-05T14:52:41.245Z,1.98
2022-11-05T14:55:25.015Z,2.47
2022-11-05T14:58:05.777Z,2.13
2022-11-05T15:00:44.499Z,2.20
2022-11-05T15:03:31.446Z,2.55
2022-11-05T15:06:06.649Z,2.47
2022-11-05T15:08:39.213Z,2.97
2022-11-05T15:11:14.418Z,2.45
2022-11-05T15:13:49.738Z,2.80
2022-11-05T15:16:21.379Z,3.05
2022-11-05T15:18:50.111Z,2.33
2022-11-05T15:21:19.492Z,2.33
2022-11-05T15:23:49.726Z,2.60
2022-11-05T15:26:27.479Z,2.40
2022-11-05T15:28:57.912Z,2.60
2022-11-05T15:31:30.816Z,3.20
2022-11-05T15:34:17.619Z,3.17
2022-11-05T15:36:50.015Z,3.67
2022-11-05T15:39:30.348Z,3.33
2022-11-05T15:41:59.547Z,2.85
2022-11-05T15:44:30.908Z,3.83
2022-11-05T15:47:20.302Z,3.55
2022-11-05T15:49:50.786Z,3.03
2022-11-05T15:52:19.952Z,3.90
2022-11-05T15:54:48.707Z,2.47
2022-11-05T15:57:22.218Z,2.55
2022-11-05T15:59:52.330Z,2.60
2022-11-05T16:02:25.706Z,2.40
2022-11-05T16:04:54.487Z,2.90
2022-11-05T16:07:23.175Z,2.33
2022-11-05T16:09:53.358Z,2.60
2022-11-05T16:12:28.040Z,2.85
2022-11-05T16:15:03.898Z,2.53
2022-11-05T16:17:33.773Z,2.58
2022-11-05T16:20:02.324Z,2.03
2022-11-05T16:22:46.136Z,2.33
2022-11-05T16:25:37.646Z,2.38
2022-11-05T16:28:07.028Z,2.33
2022-11-05T16:30:38.137Z,2.58
2022-11-05T16:33:08.126Z,2.55
2022-11-05T16:35:40.824Z,2.03
2022-11-05T16:38:12.423Z,2.45
2022-11-05T16:40:41.299Z,2.53
2022-11-05T16:43:19.017Z,2.72
2022-11-05T16:45:49.062Z,2.25
2022-11-05T16:48:18.251Z,2.22
2022-11-05T16:50:47.551Z,2.50
2022-11-05T16:53:16.131Z,2.65
2022-11-05T16:55:45.939Z,2.38
2022-11-05T16:58:19.312Z,3.00
2022-11-05T17:00:49.541Z,2.33
2022-11-05T17:03:18.191Z,2.78
2022-11-05T17:05:46.766Z,2.50
2022-11-05T17:08:15.622Z,2.70
2022-11-05T17:10:44.396Z,2.90
2022-11-05T17:13:15.034Z,3.10
2022-11-05T17:15:44.004Z,3.10
2022-11-05T17:18:18.537Z,3.05
2022-11-05T17:20:48.901Z,3.20
2022-11-05T17:23:18.358Z,2.78
2022-11-05T17:25:48.984Z,2.88
2022-11-05T17:28:17.901Z,2.92
2022-11-05T17:30:52.303Z,2.75
2022-11-05T17:33:23.893Z,2.80
2022-11-05T17:35:52.797Z,2.58
2022-11-05T17:38:21.374Z,2.88
2022-11-05T17:40:50.174Z,4.38
2022-11-05T17:43:18.748Z,4.55
2022-11-05T17:45:48.400Z,5.00
2022-11-05T17:48:17.270Z,6.28
2022-11-05T17:50:48.134Z,8.18
2022-11-05T17:53:17.785Z,4.78
2022-11-05T17:55:47.272Z,3.67
2022-11-05T17:58:16.035Z,3.63
2022-11-05T18:00:45.604Z,2.67
2022-11-05T18:03:14.917Z,3.67
2022-11-05T18:05:44.141Z,3.50
2022-11-05T18:08:14.114Z,4.45
2022-11-05T18:10:43.101Z,3.80
2022-11-05T18:13:12.243Z,4.60
2022-11-05T18:15:41.979Z,4.05
2022-11-05T18:18:10.593Z,4.55
2022-11-05T18:20:39.220Z,4.88
2022-11-05T18:23:07.807Z,4.45
2022-11-05T18:25:38.092Z,4.35
2022-11-05T18:28:06.693Z,3.85
2022-11-05T18:30:35.431Z,4.32
2022-11-05T18:33:04.220Z,4.20
2022-11-05T18:35:33.071Z,4.38
2022-11-05T18:38:01.700Z,4.45
2022-11-05T18:40:30.796Z,3.75
2022-11-05T18:43:00.768Z,4.10
2022-11-05T18:45:30.136Z,4.57
2022-11-05T18:47:58.923Z,3.75
2022-11-05T18:50:27.496Z,3.60
2022-11-05T18:52:56.099Z,4.25
2022-11-05T18:55:25.095Z,3.55
2022-11-05T18:57:53.687Z,3.97
2022-11-05T19:00:23.848Z,3.95
2022-11-05T19:02:52.570Z,4.32
2022-11-05T19:05:29.045Z,5.20
2022-11-05T19:07:58.532Z,6.07
2022-11-05T19:10:27.192Z,6.53
2022-11-05T19:12:55.842Z,6.20
2022-11-05T19:15:25.748Z,5.38
2022-11-05T19:17:54.620Z,5.00
2022-11-05T19:20:23.185Z,4.20
2022-11-05T19:22:51.915Z,4.10
2022-11-05T19:25:20.562Z,4.40
2022-11-05T19:27:49.453Z,3.80
2022-11-05T19:30:18.081Z,4.28
2022-11-05T19:32:48.027Z,4.10
2022-11-05T19:35:16.667Z,3.95
2022-11-05T19:37:45.320Z,3.88
2022-11-05T19:40:13.878Z,3.90
2022-11-05T19:42:42.489Z,3.88
2022-11-05T19:45:38.448Z,3.63
2022-11-05T19:48:01.602Z,3.90
2022-11-05T19:50:30.252Z,3.88
2022-11-05T19:52:58.928Z,3.45
2022-11-05T19:55:27.622Z,3.78
2022-11-05T19:57:56.269Z,4.13
2022-11-05T20:00:24.950Z,3.25
2022-11-05T20:02:53.685Z,3.80
2022-11-05T20:05:23.854Z,3.80
2022-11-05T20:07:53.082Z,3.55
2022-11-05T20:10:22.388Z,3.92
2022-11-05T20:12:51.083Z,2.80
2022-11-05T20:15:20.177Z,3.20
2022-11-05T20:17:51.969Z,2.75
2022-11-05T20:20:20.912Z,2.17
2022-11-05T20:22:52.932Z,2.90
2022-11-05T20:25:21.498Z,2.92
2022-11-05T20:27:50.060Z,2.40
2022-11-05T20:30:19.664Z,2.47
2022-11-05T20:32:48.215Z,2.85
2022-11-05T20:35:16.871Z,2.15
2022-11-05T20:37:48.572Z,2.17
2022-11-05T20:40:22.803Z,2.67
2022-11-05T20:42:51.481Z,2.65
2022-11-05T20:45:20.197Z,3.10
2022-11-05T20:47:48.840Z,3.13
2022-11-05T20:50:17.605Z,2.55
2022-11-05T20:52:46.187Z,3.10
2022-11-05T20:55:14.807Z,2.60
2022-11-05T20:57:44.836Z,2.40
2022-11-05T21:00:14.515Z,2.28
2022-11-05T21:02:43.295Z,2.90
2022-11-05T21:05:12.003Z,3.53
2022-11-05T21:07:40.547Z,2.67
2022-11-05T21:10:09.203Z,2.40
2022-11-05T21:12:37.870Z,2.58
2022-11-05T21:15:09.059Z,2.20
2022-11-05T21:17:37.686Z,2.60
2022-11-05T21:20:06.844Z,1.80
2022-11-05T21:22:35.401Z,2.15
2022-11-05T21:25:04.056Z,2.40
2022-11-05T21:27:32.607Z,2.03
2022-11-05T21:30:01.215Z,1.95
2022-11-05T21:32:31.252Z,1.98
2022-11-05T21:34:59.920Z,2.10
2022-11-05T21:37:28.822Z,2.17
2022-11-05T21:39:57.354Z,2.33
2022-11-05T21:42:26.303Z,1.90
2022-11-05T21:45:00.028Z,2.03
2022-11-05T21:47:30.482Z,1.90
2022-11-05T21:50:00.570Z,2.00
2022-11-05T21:52:52.425Z,1.67
2022-11-05T21:55:38.862Z,1.85
2022-11-05T21:58:29.611Z,1.90
2022-11-05T22:00:58.215Z,1.95
2022-11-05T22:03:27.026Z,1.60
2022-11-05T22:05:57.808Z,2.00
2022-11-05T22:08:27.315Z,1.75
2022-11-05T22:10:55.945Z,2.53
2022-11-05T22:13:24.556Z,5.03
2022-11-05T22:15:56.552Z,4.72
2022-11-05T22:18:25.138Z,2.42
2022-11-05T22:20:53.764Z,4.75
2022-11-05T22:23:23.738Z,3.30
2022-11-05T22:25:52.405Z,2.60
2022-11-05T22:28:20.944Z,2.40
2022-11-05T22:30:49.715Z,3.10
2022-11-05T22:33:18.481Z,2.90
2022-11-05T22:35:47.044Z,2.45
2022-11-05T22:38:15.815Z,2.72
2022-11-05T22:40:45.802Z,2.00
2022-11-05T22:43:14.408Z,1.45
2022-11-05T22:45:43.890Z,1.70
2022-11-05T22:48:12.756Z,1.80
2022-11-05T22:50:41.679Z,1.70
2022-11-05T22:53:10.270Z,1.60
2022-11-05T22:55:40.679Z,1.40
2022-11-05T22:58:10.954Z,1.88
2022-11-05T23:00:39.751Z,1.65
2022-11-05T23:03:08.436Z,1.88
2022-11-05T23:05:37.162Z,1.50
2022-11-05T23:08:23.494Z,1.35
2022-11-05T23:11:24.033Z,1.70
2022-11-05T23:13:54.132Z,1.67
2022-11-05T23:16:40.083Z,1.20
2022-11-05T23:19:26.396Z,1.20
2022-11-05T23:22:12.487Z,1.40
2022-11-05T23:24:41.202Z,1.33
2022-11-05T23:27:10.008Z,1.55
2022-11-05T23:29:39.988Z,1.25
2022-11-05T23:32:28.385Z,1.30
2022-11-05T23:34:57.548Z,1.40
2022-11-05T23:37:44.463Z,1.33
2022-11-05T23:40:14.985Z,1.35
2022-11-05T23:43:01.580Z,1.63
2022-11-05T23:45:51.732Z,1.50
2022-11-05T23:48:22.335Z,1.50
2022-11-05T23:50:53.187Z,1.88
2022-11-05T23:53:21.821Z,1.40
2022-11-05T23:55:50.745Z,1.70
2022-11-05T23:58:19.428Z,2.47
